sensor_id;sensor_type;location;lat;lon;timestamp;temperature;humidity
8820;DHT22;4446;50.876;4.736;2023-08-06T00:01:56;14.40;99.90
8820;DHT22;4446;50.876;4.736;2023-08-06T00:04:23;14.40;99.90
8820;DHT22;4446;50.876;4.736;2023-08-06T00:06:50;14.40;99.90
8820;DHT22;4446;50.876;4.736;2023-08-06T00:09:17;14.40;99.90
8820;DHT22;4446;50.876;4.736;2023-08-06T00:11:44;14.40;99.90
8820;DHT22;4446;50.876;4.736;2023-08-06T00:14:12;14.40;99.90
8820;DHT22;4446;50.876;4.736;2023-08-06T00:16:43;14.40;99.90
8820;DHT22;4446;50.876;4.736;2023-08-06T00:19:10;14.40;99.90
8820;DHT22;4446;50.876;4.736;2023-08-06T00:21:37;14.40;99.90
8820;DHT22;4446;50.876;4.736;2023-08-06T00:24:04;14.40;99.90
8820;DHT22;4446;50.876;4.736;2023-08-06T00:26:31;14.40;99.90
8820;DHT22;4446;50.876;4.736;2023-08-06T00:28:58;14.40;99.90
8820;DHT22;4446;50.876;4.736;2023-08-06T00:31:25;14.40;99.90
8820;DHT22;4446;50.876;4.736;2023-08-06T00:33:54;14.40;99.90
8820;DHT22;4446;50.876;4.736;2023-08-06T00:36:21;14.40;99.90
8820;DHT22;4446;50.876;4.736;2023-08-06T00:38:48;14.40;99.90
8820;DHT22;4446;50.876;4.736;2023-08-06T00:41:15;14.40;99.90
8820;DHT22;4446;50.876;4.736;2023-08-06T00:43:42;14.40;99.90
8820;DHT22;4446;50.876;4.736;2023-08-06T00:46:09;14.40;99.90
8820;DHT22;4446;50.876;4.736;2023-08-06T00:48:36;14.40;99.90
8820;DHT22;4446;50.876;4.736;2023-08-06T00:51:05;14.40;99.90
8820;DHT22;4446;50.876;4.736;2023-08-06T00:53:32;14.40;99.90
8820;DHT22;4446;50.876;4.736;2023-08-06T00:55:59;14.40;99.90
8820;DHT22;4446;50.876;4.736;2023-08-06T00:58:27;14.50;99.90
8820;DHT22;4446;50.876;4.736;2023-08-06T01:00:54;14.40;99.90
8820;DHT22;4446;50.876;4.736;2023-08-06T01:03:21;14.40;99.90
8820;DHT22;4446;50.876;4.736;2023-08-06T01:05:48;14.50;99.90
8820;DHT22;4446;50.876;4.736;2023-08-06T01:08:24;14.50;99.90
8820;DHT22;4446;50.876;4.736;2023-08-06T01:11:04;14.50;99.90
8820;DHT22;4446;50.876;4.736;2023-08-06T01:13:43;14.50;99.90
8820;DHT22;4446;50.876;4.736;2023-08-06T01:16:15;14.50;99.90
8820;DHT22;4446;50.876;4.736;2023-08-06T01:18:43;14.50;99.90
8820;DHT22;4446;50.876;4.736;2023-08-06T01:21:13;14.50;99.90
8820;DHT22;4446;50.876;4.736;2023-08-06T01:23:41;14.50;99.90
8820;DHT22;4446;50.876;4.736;2023-08-06T01:26:13;14.50;99.90
8820;DHT22;4446;50.876;4.736;2023-08-06T01:28:46;14.50;99.90
8820;DHT22;4446;50.876;4.736;2023-08-06T01:31:18;14.50;99.90
8820;DHT22;4446;50.876;4.736;2023-08-06T01:33:49;14.50;99.90
8820;DHT22;4446;50.876;4.736;2023-08-06T01:36:19;14.50;99.90
8820;DHT22;4446;50.876;4.736;2023-08-06T01:38:47;14.50;99.90
8820;DHT22;4446;50.876;4.736;2023-08-06T01:41:14;14.50;99.90
8820;DHT22;4446;50.876;4.736;2023-08-06T01:43:41;14.50;99.90
8820;DHT22;4446;50.876;4.736;2023-08-06T01:46:08;14.50;99.90
8820;DHT22;4446;50.876;4.736;2023-08-06T01:48:35;14.50;99.90
8820;DHT22;4446;50.876;4.736;2023-08-06T01:51:04;14.50;99.90
8820;DHT22;4446;50.876;4.736;2023-08-06T01:53:32;14.60;99.90
8820;DHT22;4446;50.876;4.736;2023-08-06T01:55:59;14.60;99.90
8820;DHT22;4446;50.876;4.736;2023-08-06T01:58:26;14.60;99.90
8820;DHT22;4446;50.876;4.736;2023-08-06T02:00:53;14.60;99.90
8820;DHT22;4446;50.876;4.736;2023-08-06T02:03:20;14.60;99.90
8820;DHT22;4446;50.876;4.736;2023-08-06T02:05:47;14.60;99.90
8820;DHT22;4446;50.876;4.736;2023-08-06T02:08:14;14.60;99.90
8820;DHT22;4446;50.876;4.736;2023-08-06T02:10:43;14.70;99.90
8820;DHT22;4446;50.876;4.736;2023-08-06T02:13:09;14.70;99.90
8820;DHT22;4446;50.876;4.736;2023-08-06T02:15:42;14.70;99.90
8820;DHT22;4446;50.876;4.736;2023-08-06T02:18:09;14.70;99.90
8820;DHT22;4446;50.876;4.736;2023-08-06T02:20:36;14.70;99.90
8820;DHT22;4446;50.876;4.736;2023-08-06T02:23:03;14.70;99.90
8820;DHT22;4446;50.876;4.736;2023-08-06T02:25:30;14.70;99.90
8820;DHT22;4446;50.876;4.736;2023-08-06T02:27:58;14.70;99.90
8820;DHT22;4446;50.876;4.736;2023-08-06T02:30:26;14.70;99.90
8820;DHT22;4446;50.876;4.736;2023-08-06T02:32:53;14.70;99.90
8820;DHT22;4446;50.876;4.736;2023-08-06T02:35:20;14.70;99.90
8820;DHT22;4446;50.876;4.736;2023-08-06T02:37:47;14.60;99.90
8820;DHT22;4446;50.876;4.736;2023-08-06T02:40:14;14.60;99.90
8820;DHT22;4446;50.876;4.736;2023-08-06T02:42:41;14.60;99.90
8820;DHT22;4446;50.876;4.736;2023-08-06T02:45:10;14.60;99.90
8820;DHT22;4446;50.876;4.736;2023-08-06T02:47:37;14.60;99.90
8820;DHT22;4446;50.876;4.736;2023-08-06T02:50:05;14.60;99.90
8820;DHT22;4446;50.876;4.736;2023-08-06T02:52:32;14.60;99.90
8820;DHT22;4446;50.876;4.736;2023-08-06T02:54:59;14.60;99.90
8820;DHT22;4446;50.876;4.736;2023-08-06T02:57:26;14.60;99.90
8820;DHT22;4446;50.876;4.736;2023-08-06T02:59:53;14.60;99.90
8820;DHT22;4446;50.876;4.736;2023-08-06T03:02:22;14.50;99.90
8820;DHT22;4446;50.876;4.736;2023-08-06T03:04:49;14.60;99.90
8820;DHT22;4446;50.876;4.736;2023-08-06T03:07:16;14.60;99.90
8820;DHT22;4446;50.876;4.736;2023-08-06T03:09:43;14.50;99.90
8820;DHT22;4446;50.876;4.736;2023-08-06T03:12:11;14.50;99.90
8820;DHT22;4446;50.876;4.736;2023-08-06T03:14:38;14.30;99.90
8820;DHT22;4446;50.876;4.736;2023-08-06T03:17:05;14.30;99.90
8820;DHT22;4446;50.876;4.736;2023-08-06T03:19:34;14.30;99.90
8820;DHT22;4446;50.876;4.736;2023-08-06T03:22:01;14.40;99.90
8820;DHT22;4446;50.876;4.736;2023-08-06T03:24:28;14.40;99.90
8820;DHT22;4446;50.876;4.736;2023-08-06T03:26:55;14.40;99.90
8820;DHT22;4446;50.876;4.736;2023-08-06T03:29:22;14.50;99.90
8820;DHT22;4446;50.876;4.736;2023-08-06T03:31:49;14.50;99.90
8820;DHT22;4446;50.876;4.736;2023-08-06T03:34:16;14.50;99.90
8820;DHT22;4446;50.876;4.736;2023-08-06T03:36:44;14.50;99.90
8820;DHT22;4446;50.876;4.736;2023-08-06T03:39:11;14.50;99.90
8820;DHT22;4446;50.876;4.736;2023-08-06T03:41:39;14.50;99.90
8820;DHT22;4446;50.876;4.736;2023-08-06T03:44:06;14.50;99.90
8820;DHT22;4446;50.876;4.736;2023-08-06T03:46:34;14.50;99.90
8820;DHT22;4446;50.876;4.736;2023-08-06T03:49:01;14.50;99.90
8820;DHT22;4446;50.876;4.736;2023-08-06T03:51:28;14.50;99.90
8820;DHT22;4446;50.876;4.736;2023-08-06T03:53:56;14.60;99.90
8820;DHT22;4446;50.876;4.736;2023-08-06T03:56:23;14.60;99.90
8820;DHT22;4446;50.876;4.736;2023-08-06T03:58:50;14.50;99.90
8820;DHT22;4446;50.876;4.736;2023-08-06T04:01:17;14.60;99.90
8820;DHT22;4446;50.876;4.736;2023-08-06T04:03:44;14.60;99.90
8820;DHT22;4446;50.876;4.736;2023-08-06T04:06:12;14.60;99.90
8820;DHT22;4446;50.876;4.736;2023-08-06T04:08:39;14.60;99.90
8820;DHT22;4446;50.876;4.736;2023-08-06T04:11:07;14.60;99.90
8820;DHT22;4446;50.876;4.736;2023-08-06T04:13:34;14.70;99.90
8820;DHT22;4446;50.876;4.736;2023-08-06T04:16:02;14.70;99.90
8820;DHT22;4446;50.876;4.736;2023-08-06T04:18:29;14.70;99.90
8820;DHT22;4446;50.876;4.736;2023-08-06T04:20:56;14.70;99.90
8820;DHT22;4446;50.876;4.736;2023-08-06T04:23:23;14.70;99.90
8820;DHT22;4446;50.876;4.736;2023-08-06T04:25:51;14.70;99.90
8820;DHT22;4446;50.876;4.736;2023-08-06T04:28:19;14.70;99.90
8820;DHT22;4446;50.876;4.736;2023-08-06T04:30:46;14.70;99.90
8820;DHT22;4446;50.876;4.736;2023-08-06T04:33:13;14.70;99.90
8820;DHT22;4446;50.876;4.736;2023-08-06T04:35:40;14.80;99.90
8820;DHT22;4446;50.876;4.736;2023-08-06T04:38:07;14.80;99.90
8820;DHT22;4446;50.876;4.736;2023-08-06T04:40:34;14.80;99.90
8820;DHT22;4446;50.876;4.736;2023-08-06T04:43:02;14.80;99.90
8820;DHT22;4446;50.876;4.736;2023-08-06T04:45:30;14.80;99.90
8820;DHT22;4446;50.876;4.736;2023-08-06T04:47:57;14.90;99.90
8820;DHT22;4446;50.876;4.736;2023-08-06T04:50:24;14.90;99.90
8820;DHT22;4446;50.876;4.736;2023-08-06T04:52:51;14.90;99.90
8820;DHT22;4446;50.876;4.736;2023-08-06T04:55:18;15.00;99.90
8820;DHT22;4446;50.876;4.736;2023-08-06T04:57:45;15.00;99.90
8820;DHT22;4446;50.876;4.736;2023-08-06T05:00:13;15.00;99.90
8820;DHT22;4446;50.876;4.736;2023-08-06T05:02:41;14.90;99.90
8820;DHT22;4446;50.876;4.736;2023-08-06T05:05:08;14.80;99.90
8820;DHT22;4446;50.876;4.736;2023-08-06T05:07:35;14.80;99.90
8820;DHT22;4446;50.876;4.736;2023-08-06T05:10:02;14.70;99.90
8820;DHT22;4446;50.876;4.736;2023-08-06T05:12:30;14.60;99.90
8820;DHT22;4446;50.876;4.736;2023-08-06T05:14:57;14.50;99.90
8820;DHT22;4446;50.876;4.736;2023-08-06T05:17:24;14.50;99.90
8820;DHT22;4446;50.876;4.736;2023-08-06T05:19:52;14.40;99.90
8820;DHT22;4446;50.876;4.736;2023-08-06T05:22:19;14.40;99.90
8820;DHT22;4446;50.876;4.736;2023-08-06T05:24:46;14.20;99.90
8820;DHT22;4446;50.876;4.736;2023-08-06T05:27:13;14.20;99.90
8820;DHT22;4446;50.876;4.736;2023-08-06T05:29:40;14.10;99.90
8820;DHT22;4446;50.876;4.736;2023-08-06T05:32:07;14.10;99.90
8820;DHT22;4446;50.876;4.736;2023-08-06T05:34:34;14.00;99.90
8820;DHT22;4446;50.876;4.736;2023-08-06T05:37:03;14.00;99.90
8820;DHT22;4446;50.876;4.736;2023-08-06T05:39:30;13.90;99.90
8820;DHT22;4446;50.876;4.736;2023-08-06T05:41:57;13.90;99.90
8820;DHT22;4446;50.876;4.736;2023-08-06T05:44:24;14.00;99.90
8820;DHT22;4446;50.876;4.736;2023-08-06T05:46:52;14.00;99.90
8820;DHT22;4446;50.876;4.736;2023-08-06T05:49:19;14.00;99.90
8820;DHT22;4446;50.876;4.736;2023-08-06T05:51:47;14.00;99.90
8820;DHT22;4446;50.876;4.736;2023-08-06T05:54:15;14.00;99.90
8820;DHT22;4446;50.876;4.736;2023-08-06T05:56:42;14.10;99.90
8820;DHT22;4446;50.876;4.736;2023-08-06T05:59:09;14.10;99.90
8820;DHT22;4446;50.876;4.736;2023-08-06T06:01:36;14.10;99.90
8820;DHT22;4446;50.876;4.736;2023-08-06T06:04:03;14.00;99.90
8820;DHT22;4446;50.876;4.736;2023-08-06T06:06:30;14.00;99.90
8820;DHT22;4446;50.876;4.736;2023-08-06T06:08:58;14.00;99.90
8820;DHT22;4446;50.876;4.736;2023-08-06T06:11:26;14.00;99.90
8820;DHT22;4446;50.876;4.736;2023-08-06T06:13:53;14.00;99.90
8820;DHT22;4446;50.876;4.736;2023-08-06T06:16:20;14.10;99.90
8820;DHT22;4446;50.876;4.736;2023-08-06T06:18:47;14.10;99.90
8820;DHT22;4446;50.876;4.736;2023-08-06T06:21:14;14.10;99.90
8820;DHT22;4446;50.876;4.736;2023-08-06T06:23:41;14.10;99.90
8820;DHT22;4446;50.876;4.736;2023-08-06T06:26:08;14.10;99.90
8820;DHT22;4446;50.876;4.736;2023-08-06T06:28:37;14.10;99.90
8820;DHT22;4446;50.876;4.736;2023-08-06T06:31:04;14.00;99.90
8820;DHT22;4446;50.876;4.736;2023-08-06T06:33:31;14.00;99.90
8820;DHT22;4446;50.876;4.736;2023-08-06T06:35:58;14.00;99.90
8820;DHT22;4446;50.876;4.736;2023-08-06T06:38:25;14.00;99.90
8820;DHT22;4446;50.876;4.736;2023-08-06T06:40:56;13.90;99.90
8820;DHT22;4446;50.876;4.736;2023-08-06T06:43:23;14.00;99.90
8820;DHT22;4446;50.876;4.736;2023-08-06T06:45:55;14.00;99.90
8820;DHT22;4446;50.876;4.736;2023-08-06T06:48:22;14.00;99.90
8820;DHT22;4446;50.876;4.736;2023-08-06T06:50:50;14.00;99.90
8820;DHT22;4446;50.876;4.736;2023-08-06T06:53:17;14.00;99.90
8820;DHT22;4446;50.876;4.736;2023-08-06T06:55:44;14.00;99.90
8820;DHT22;4446;50.876;4.736;2023-08-06T06:58:11;14.00;99.90
8820;DHT22;4446;50.876;4.736;2023-08-06T07:00:38;14.00;99.90
8820;DHT22;4446;50.876;4.736;2023-08-06T07:03:07;14.00;99.90
8820;DHT22;4446;50.876;4.736;2023-08-06T07:05:34;14.00;99.90
8820;DHT22;4446;50.876;4.736;2023-08-06T07:08:01;14.00;99.90
8820;DHT22;4446;50.876;4.736;2023-08-06T07:10:28;14.10;99.90
8820;DHT22;4446;50.876;4.736;2023-08-06T07:12:55;14.10;99.90
8820;DHT22;4446;50.876;4.736;2023-08-06T07:15:22;14.10;99.90
8820;DHT22;4446;50.876;4.736;2023-08-06T07:17:49;14.10;99.90
8820;DHT22;4446;50.876;4.736;2023-08-06T07:20:18;14.10;99.90
8820;DHT22;4446;50.876;4.736;2023-08-06T07:22:45;14.10;99.90
8820;DHT22;4446;50.876;4.736;2023-08-06T07:25:12;14.10;99.90
8820;DHT22;4446;50.876;4.736;2023-08-06T07:27:39;14.10;99.90
8820;DHT22;4446;50.876;4.736;2023-08-06T07:30:07;14.20;99.90
8820;DHT22;4446;50.876;4.736;2023-08-06T07:32:34;14.20;99.90
8820;DHT22;4446;50.876;4.736;2023-08-06T07:35:01;14.20;99.90
8820;DHT22;4446;50.876;4.736;2023-08-06T07:37:30;14.20;99.90
8820;DHT22;4446;50.876;4.736;2023-08-06T07:39:57;14.30;99.90
8820;DHT22;4446;50.876;4.736;2023-08-06T07:42:24;14.30;99.90
8820;DHT22;4446;50.876;4.736;2023-08-06T07:44:52;14.30;99.90
8820;DHT22;4446;50.876;4.736;2023-08-06T07:47:19;14.40;99.90
8820;DHT22;4446;50.876;4.736;2023-08-06T07:49:46;14.40;99.90
8820;DHT22;4446;50.876;4.736;2023-08-06T07:52:13;14.50;99.90
8820;DHT22;4446;50.876;4.736;2023-08-06T07:54:42;14.50;99.90
8820;DHT22;4446;50.876;4.736;2023-08-06T07:57:09;14.50;99.90
8820;DHT22;4446;50.876;4.736;2023-08-06T07:59:36;14.50;99.90
8820;DHT22;4446;50.876;4.736;2023-08-06T08:02:04;14.40;99.90
8820;DHT22;4446;50.876;4.736;2023-08-06T08:04:32;14.40;99.90
8820;DHT22;4446;50.876;4.736;2023-08-06T08:06:59;14.20;99.90
8820;DHT22;4446;50.876;4.736;2023-08-06T08:09:26;14.20;99.90
8820;DHT22;4446;50.876;4.736;2023-08-06T08:11:54;14.20;99.90
8820;DHT22;4446;50.876;4.736;2023-08-06T08:14:21;14.30;99.90
8820;DHT22;4446;50.876;4.736;2023-08-06T08:16:48;14.30;99.90
8820;DHT22;4446;50.876;4.736;2023-08-06T08:19:15;14.40;99.90
8820;DHT22;4446;50.876;4.736;2023-08-06T08:21:42;14.50;99.90
8820;DHT22;4446;50.876;4.736;2023-08-06T08:24:09;14.60;99.90
8820;DHT22;4446;50.876;4.736;2023-08-06T08:26:36;14.60;99.90
8820;DHT22;4446;50.876;4.736;2023-08-06T08:29:04;14.70;99.90
8820;DHT22;4446;50.876;4.736;2023-08-06T08:31:31;14.80;99.90
8820;DHT22;4446;50.876;4.736;2023-08-06T08:34:04;14.80;99.90
8820;DHT22;4446;50.876;4.736;2023-08-06T08:36:32;14.80;99.90
8820;DHT22;4446;50.876;4.736;2023-08-06T08:38:59;14.90;99.90
8820;DHT22;4446;50.876;4.736;2023-08-06T08:41:28;15.00;99.90
8820;DHT22;4446;50.876;4.736;2023-08-06T08:43:56;15.00;99.90
8820;DHT22;4446;50.876;4.736;2023-08-06T08:46:27;14.90;99.90
8820;DHT22;4446;50.876;4.736;2023-08-06T08:48:56;14.80;99.90
8820;DHT22;4446;50.876;4.736;2023-08-06T08:51:23;14.60;99.90
8820;DHT22;4446;50.876;4.736;2023-08-06T08:53:53;14.50;99.90
8820;DHT22;4446;50.876;4.736;2023-08-06T08:56:22;14.50;99.90
8820;DHT22;4446;50.876;4.736;2023-08-06T08:58:49;14.60;99.90
8820;DHT22;4446;50.876;4.736;2023-08-06T09:01:16;14.60;99.90
8820;DHT22;4446;50.876;4.736;2023-08-06T09:03:44;14.60;99.90
8820;DHT22;4446;50.876;4.736;2023-08-06T09:06:12;14.70;99.90
8820;DHT22;4446;50.876;4.736;2023-08-06T09:08:46;14.70;99.90
8820;DHT22;4446;50.876;4.736;2023-08-06T09:11:14;14.80;99.90
8820;DHT22;4446;50.876;4.736;2023-08-06T09:13:41;14.90;99.90
8820;DHT22;4446;50.876;4.736;2023-08-06T09:16:08;14.80;99.90
8820;DHT22;4446;50.876;4.736;2023-08-06T09:18:39;14.80;99.90
8820;DHT22;4446;50.876;4.736;2023-08-06T09:21:13;14.70;99.90
8820;DHT22;4446;50.876;4.736;2023-08-06T09:23:41;14.60;99.90
8820;DHT22;4446;50.876;4.736;2023-08-06T09:26:11;14.50;99.90
8820;DHT22;4446;50.876;4.736;2023-08-06T09:28:39;14.50;99.90
8820;DHT22;4446;50.876;4.736;2023-08-06T09:31:09;14.50;99.90
8820;DHT22;4446;50.876;4.736;2023-08-06T09:33:37;14.40;99.90
8820;DHT22;4446;50.876;4.736;2023-08-06T09:36:10;14.40;99.90
8820;DHT22;4446;50.876;4.736;2023-08-06T09:38:40;14.40;99.90
8820;DHT22;4446;50.876;4.736;2023-08-06T09:41:08;14.40;99.90
8820;DHT22;4446;50.876;4.736;2023-08-06T09:43:41;14.40;99.90
8820;DHT22;4446;50.876;4.736;2023-08-06T09:46:12;14.50;99.90
8820;DHT22;4446;50.876;4.736;2023-08-06T09:48:45;14.50;99.90
8820;DHT22;4446;50.876;4.736;2023-08-06T09:51:13;14.40;99.90
8820;DHT22;4446;50.876;4.736;2023-08-06T09:53:41;14.40;99.90
8820;DHT22;4446;50.876;4.736;2023-08-06T09:56:09;14.40;99.90
8820;DHT22;4446;50.876;4.736;2023-08-06T09:58:38;14.40;99.90
8820;DHT22;4446;50.876;4.736;2023-08-06T10:01:06;14.50;99.90
8820;DHT22;4446;50.876;4.736;2023-08-06T10:03:34;14.50;99.90
8820;DHT22;4446;50.876;4.736;2023-08-06T10:06:02;14.50;99.90
8820;DHT22;4446;50.876;4.736;2023-08-06T10:08:34;14.50;99.90
8820;DHT22;4446;50.876;4.736;2023-08-06T10:11:02;14.50;99.90
8820;DHT22;4446;50.876;4.736;2023-08-06T10:13:32;14.40;99.90
8820;DHT22;4446;50.876;4.736;2023-08-06T10:16:00;14.40;99.90
8820;DHT22;4446;50.876;4.736;2023-08-06T10:18:28;14.30;99.90
8820;DHT22;4446;50.876;4.736;2023-08-06T10:20:56;14.20;99.90
8820;DHT22;4446;50.876;4.736;2023-08-06T10:23:35;14.20;99.90
8820;DHT22;4446;50.876;4.736;2023-08-06T10:26:04;14.20;99.90
8820;DHT22;4446;50.876;4.736;2023-08-06T10:28:34;14.20;99.90
8820;DHT22;4446;50.876;4.736;2023-08-06T10:31:02;14.10;99.90
8820;DHT22;4446;50.876;4.736;2023-08-06T10:33:44;14.10;99.90
8820;DHT22;4446;50.876;4.736;2023-08-06T10:36:11;14.10;99.90
8820;DHT22;4446;50.876;4.736;2023-08-06T10:38:47;14.10;99.90
8820;DHT22;4446;50.876;4.736;2023-08-06T10:41:16;14.00;99.90
8820;DHT22;4446;50.876;4.736;2023-08-06T10:43:43;14.00;99.90
8820;DHT22;4446;50.876;4.736;2023-08-06T10:46:22;14.10;99.90
8820;DHT22;4446;50.876;4.736;2023-08-06T10:48:49;14.10;99.90
8820;DHT22;4446;50.876;4.736;2023-08-06T10:51:17;14.10;99.90
8820;DHT22;4446;50.876;4.736;2023-08-06T10:53:46;14.10;99.90
8820;DHT22;4446;50.876;4.736;2023-08-06T10:56:14;14.20;99.90
8820;DHT22;4446;50.876;4.736;2023-08-06T10:58:42;14.10;99.90
8820;DHT22;4446;50.876;4.736;2023-08-06T11:01:10;14.10;99.90
8820;DHT22;4446;50.876;4.736;2023-08-06T11:03:38;14.00;99.90
8820;DHT22;4446;50.876;4.736;2023-08-06T11:06:07;14.00;99.90
8820;DHT22;4446;50.876;4.736;2023-08-06T11:08:35;14.00;99.90
8820;DHT22;4446;50.876;4.736;2023-08-06T11:11:10;14.10;99.90
8820;DHT22;4446;50.876;4.736;2023-08-06T11:13:38;14.20;99.90
8820;DHT22;4446;50.876;4.736;2023-08-06T11:16:05;14.20;99.90
8820;DHT22;4446;50.876;4.736;2023-08-06T11:18:33;14.20;99.90
8820;DHT22;4446;50.876;4.736;2023-08-06T11:21:00;14.20;99.90
8820;DHT22;4446;50.876;4.736;2023-08-06T11:23:28;14.10;99.90
8820;DHT22;4446;50.876;4.736;2023-08-06T11:25:55;14.10;99.90
8820;DHT22;4446;50.876;4.736;2023-08-06T11:28:24;14.00;99.90
8820;DHT22;4446;50.876;4.736;2023-08-06T11:30:51;14.00;99.90
8820;DHT22;4446;50.876;4.736;2023-08-06T11:33:20;14.00;99.90
8820;DHT22;4446;50.876;4.736;2023-08-06T11:35:48;14.00;99.90
8820;DHT22;4446;50.876;4.736;2023-08-06T11:38:16;14.20;99.90
8820;DHT22;4446;50.876;4.736;2023-08-06T11:40:44;14.20;99.90
8820;DHT22;4446;50.876;4.736;2023-08-06T11:43:12;14.30;99.90
8820;DHT22;4446;50.876;4.736;2023-08-06T11:45:40;14.30;99.90
8820;DHT22;4446;50.876;4.736;2023-08-06T11:48:08;14.30;99.90
8820;DHT22;4446;50.876;4.736;2023-08-06T11:50:37;14.50;99.90
8820;DHT22;4446;50.876;4.736;2023-08-06T11:53:05;14.50;99.90
8820;DHT22;4446;50.876;4.736;2023-08-06T11:55:33;14.40;99.90
8820;DHT22;4446;50.876;4.736;2023-08-06T11:58:03;14.30;99.90
8820;DHT22;4446;50.876;4.736;2023-08-06T12:00:30;14.30;99.90
8820;DHT22;4446;50.876;4.736;2023-08-06T12:02:59;14.20;99.90
8820;DHT22;4446;50.876;4.736;2023-08-06T12:05:30;14.10;99.90
8820;DHT22;4446;50.876;4.736;2023-08-06T12:07:59;14.00;99.90
8820;DHT22;4446;50.876;4.736;2023-08-06T12:10:28;14.00;99.90
8820;DHT22;4446;50.876;4.736;2023-08-06T12:12:55;14.00;99.90
8820;DHT22;4446;50.876;4.736;2023-08-06T12:15:23;14.10;99.90
8820;DHT22;4446;50.876;4.736;2023-08-06T12:17:50;14.30;99.90
8820;DHT22;4446;50.876;4.736;2023-08-06T12:20:19;14.30;99.90
8820;DHT22;4446;50.876;4.736;2023-08-06T12:22:46;14.30;99.90
8820;DHT22;4446;50.876;4.736;2023-08-06T12:25:13;14.30;99.90
8820;DHT22;4446;50.876;4.736;2023-08-06T12:27:41;14.30;99.90
8820;DHT22;4446;50.876;4.736;2023-08-06T12:30:10;14.30;99.90
8820;DHT22;4446;50.876;4.736;2023-08-06T12:32:37;14.30;99.90
8820;DHT22;4446;50.876;4.736;2023-08-06T12:35:05;14.20;99.90
8820;DHT22;4446;50.876;4.736;2023-08-06T12:37:35;14.20;99.90
8820;DHT22;4446;50.876;4.736;2023-08-06T12:40:04;14.20;99.90
8820;DHT22;4446;50.876;4.736;2023-08-06T12:42:32;14.30;99.90
8820;DHT22;4446;50.876;4.736;2023-08-06T12:44:59;14.30;99.90
8820;DHT22;4446;50.876;4.736;2023-08-06T12:47:26;14.30;99.90
8820;DHT22;4446;50.876;4.736;2023-08-06T12:49:53;14.40;99.90
8820;DHT22;4446;50.876;4.736;2023-08-06T12:52:20;14.50;99.90
8820;DHT22;4446;50.876;4.736;2023-08-06T12:54:49;14.50;99.90
8820;DHT22;4446;50.876;4.736;2023-08-06T12:57:16;14.50;99.90
8820;DHT22;4446;50.876;4.736;2023-08-06T12:59:43;14.50;99.90
8820;DHT22;4446;50.876;4.736;2023-08-06T13:02:10;14.50;99.90
8820;DHT22;4446;50.876;4.736;2023-08-06T13:04:37;14.40;99.90
8820;DHT22;4446;50.876;4.736;2023-08-06T13:07:05;14.40;99.90
8820;DHT22;4446;50.876;4.736;2023-08-06T13:09:32;14.40;99.90
8820;DHT22;4446;50.876;4.736;2023-08-06T13:12:01;14.40;99.90
8820;DHT22;4446;50.876;4.736;2023-08-06T13:14:31;14.30;99.90
8820;DHT22;4446;50.876;4.736;2023-08-06T13:16:58;14.40;99.90
8820;DHT22;4446;50.876;4.736;2023-08-06T13:19:25;14.30;99.90
8820;DHT22;4446;50.876;4.736;2023-08-06T13:22:03;14.30;99.90
8820;DHT22;4446;50.876;4.736;2023-08-06T13:24:32;14.10;99.90
8820;DHT22;4446;50.876;4.736;2023-08-06T13:27:01;14.10;99.90
8820;DHT22;4446;50.876;4.736;2023-08-06T13:29:28;14.00;99.90
8820;DHT22;4446;50.876;4.736;2023-08-06T13:31:56;14.10;99.90
8820;DHT22;4446;50.876;4.736;2023-08-06T13:34:23;14.20;99.90
8820;DHT22;4446;50.876;4.736;2023-08-06T13:36:50;14.20;99.90
8820;DHT22;4446;50.876;4.736;2023-08-06T13:39:17;14.30;99.90
8820;DHT22;4446;50.876;4.736;2023-08-06T13:41:45;14.50;99.90
8820;DHT22;4446;50.876;4.736;2023-08-06T13:44:13;14.40;99.90
8820;DHT22;4446;50.876;4.736;2023-08-06T13:46:42;14.40;99.90
8820;DHT22;4446;50.876;4.736;2023-08-06T13:49:09;14.40;99.90
8820;DHT22;4446;50.876;4.736;2023-08-06T13:51:36;14.40;99.90
8820;DHT22;4446;50.876;4.736;2023-08-06T13:54:04;14.40;99.90
8820;DHT22;4446;50.876;4.736;2023-08-06T13:56:32;14.20;99.90
8820;DHT22;4446;50.876;4.736;2023-08-06T13:58:59;14.10;99.90
8820;DHT22;4446;50.876;4.736;2023-08-06T14:01:28;14.10;99.90
8820;DHT22;4446;50.876;4.736;2023-08-06T14:03:55;14.10;99.90
8820;DHT22;4446;50.876;4.736;2023-08-06T14:06:22;14.00;99.90
8820;DHT22;4446;50.876;4.736;2023-08-06T14:08:48;13.90;99.90
8820;DHT22;4446;50.876;4.736;2023-08-06T14:11:17;13.80;99.90
8820;DHT22;4446;50.876;4.736;2023-08-06T14:13:44;13.60;99.90
8820;DHT22;4446;50.876;4.736;2023-08-06T14:16:11;13.60;99.90
8820;DHT22;4446;50.876;4.736;2023-08-06T14:18:39;13.60;99.90
8820;DHT22;4446;50.876;4.736;2023-08-06T14:21:07;13.60;99.90
8820;DHT22;4446;50.876;4.736;2023-08-06T14:23:34;13.50;99.90
8820;DHT22;4446;50.876;4.736;2023-08-06T14:26:01;13.60;99.90
8820;DHT22;4446;50.876;4.736;2023-08-06T14:28:28;13.60;99.90
8820;DHT22;4446;50.876;4.736;2023-08-06T14:30:55;13.60;99.90
8820;DHT22;4446;50.876;4.736;2023-08-06T14:33:22;13.50;99.90
8820;DHT22;4446;50.876;4.736;2023-08-06T14:35:51;13.50;99.90
8820;DHT22;4446;50.876;4.736;2023-08-06T14:38:18;13.60;99.90
8820;DHT22;4446;50.876;4.736;2023-08-06T14:40:45;13.50;99.90
8820;DHT22;4446;50.876;4.736;2023-08-06T14:43:12;13.50;99.90
8820;DHT22;4446;50.876;4.736;2023-08-06T14:45:39;13.60;99.90
8820;DHT22;4446;50.876;4.736;2023-08-06T14:48:06;13.70;99.90
8820;DHT22;4446;50.876;4.736;2023-08-06T14:50:34;13.70;99.90
8820;DHT22;4446;50.876;4.736;2023-08-06T14:53:02;13.80;99.90
8820;DHT22;4446;50.876;4.736;2023-08-06T14:55:30;13.80;99.90
8820;DHT22;4446;50.876;4.736;2023-08-06T14:57:57;13.90;99.90
8820;DHT22;4446;50.876;4.736;2023-08-06T15:00:25;13.90;99.90
8820;DHT22;4446;50.876;4.736;2023-08-06T15:02:53;14.00;99.90
8820;DHT22;4446;50.876;4.736;2023-08-06T15:05:20;14.00;99.90
8820;DHT22;4446;50.876;4.736;2023-08-06T15:07:46;14.10;99.90
8820;DHT22;4446;50.876;4.736;2023-08-06T15:10:15;14.10;99.90
8820;DHT22;4446;50.876;4.736;2023-08-06T15:12:42;14.10;99.90
8820;DHT22;4446;50.876;4.736;2023-08-06T15:15:10;14.10;99.90
8820;DHT22;4446;50.876;4.736;2023-08-06T15:17:37;14.00;99.90
8820;DHT22;4446;50.876;4.736;2023-08-06T15:20:05;13.90;99.90
8820;DHT22;4446;50.876;4.736;2023-08-06T15:22:32;13.80;99.90
8820;DHT22;4446;50.876;4.736;2023-08-06T15:25:00;13.80;99.90
8820;DHT22;4446;50.876;4.736;2023-08-06T15:27:28;13.70;99.90
8820;DHT22;4446;50.876;4.736;2023-08-06T15:29:56;13.80;99.90
8820;DHT22;4446;50.876;4.736;2023-08-06T15:32:23;13.80;99.90
8820;DHT22;4446;50.876;4.736;2023-08-06T15:34:50;13.90;99.90
8820;DHT22;4446;50.876;4.736;2023-08-06T15:37:17;13.90;99.90
8820;DHT22;4446;50.876;4.736;2023-08-06T15:39:44;14.00;99.90
8820;DHT22;4446;50.876;4.736;2023-08-06T15:42:11;14.00;99.90
8820;DHT22;4446;50.876;4.736;2023-08-06T15:44:40;14.00;99.90
8820;DHT22;4446;50.876;4.736;2023-08-06T15:47:07;14.00;99.90
8820;DHT22;4446;50.876;4.736;2023-08-06T15:49:34;14.00;99.90
8820;DHT22;4446;50.876;4.736;2023-08-06T15:52:01;14.10;99.90
8820;DHT22;4446;50.876;4.736;2023-08-06T15:54:28;14.20;99.90
8820;DHT22;4446;50.876;4.736;2023-08-06T15:56:55;14.20;99.90
8820;DHT22;4446;50.876;4.736;2023-08-06T15:59:24;14.20;99.90
8820;DHT22;4446;50.876;4.736;2023-08-06T16:01:53;14.20;99.90
8820;DHT22;4446;50.876;4.736;2023-08-06T16:04:20;14.30;99.90
8820;DHT22;4446;50.876;4.736;2023-08-06T16:06:47;14.40;99.90